sensor_id;sensor_type;location;lat;lon;timestamp;P1;durP1;ratioP1;P2;durP2;ratioP2
22571;SDS011;11452;53.368;14.658;2023-04-01T00:01:14;8.20;;;6.53;;
22571;SDS011;11452;53.368;14.658;2023-04-01T00:06:20;7.90;;;6.57;;
22571;SDS011;11452;53.368;14.658;2023-04-01T00:11:26;9.27;;;7.50;;
22571;SDS011;11452;53.368;14.658;2023-04-01T00:16:31;8.63;;;7.33;;
22571;SDS011;11452;53.368;14.658;2023-04-01T00:21:37;10.40;;;8.60;;
22571;SDS011;11452;53.368;14.658;2023-04-01T00:26:43;13.73;;;9.57;;
22571;SDS011;11452;53.368;14.658;2023-04-01T00:31:51;11.87;;;8.30;;
22571;SDS011;11452;53.368;14.658;2023-04-01T00:36:57;8.97;;;7.30;;
22571;SDS011;11452;53.368;14.658;2023-04-01T00:42:03;10.40;;;7.60;;
22571;SDS011;11452;53.368;14.658;2023-04-01T00:47:09;10.87;;;7.73;;
22571;SDS011;11452;53.368;14.658;2023-04-01T00:52:16;10.27;;;8.20;;
22571;SDS011;11452;53.368;14.658;2023-04-01T00:57:25;15.57;;;9.77;;
22571;SDS011;11452;53.368;14.658;2023-04-01T01:02:38;14.13;;;9.20;;
22571;SDS011;11452;53.368;14.658;2023-04-01T01:08:04;12.60;;;9.33;;
22571;SDS011;11452;53.368;14.658;2023-04-01T01:13:18;11.50;;;8.90;;
22571;SDS011;11452;53.368;14.658;2023-04-01T01:18:27;10.93;;;8.63;;
22571;SDS011;11452;53.368;14.658;2023-04-01T01:34:36;7.83;;;5.93;;
22571;SDS011;11452;53.368;14.658;2023-04-01T01:39:45;7.03;;;4.73;;
22571;SDS011;11452;53.368;14.658;2023-04-01T01:44:53;4.90;;;3.93;;
22571;SDS011;11452;53.368;14.658;2023-04-01T01:50:01;5.87;;;4.37;;
22571;SDS011;11452;53.368;14.658;2023-04-01T01:55:28;5.10;;;4.40;;
22571;SDS011;11452;53.368;14.658;2023-04-01T02:00:39;5.90;;;4.67;;
22571;SDS011;11452;53.368;14.658;2023-04-01T02:05:48;5.13;;;4.60;;
22571;SDS011;11452;53.368;14.658;2023-04-01T02:11:03;7.53;;;5.43;;
22571;SDS011;11452;53.368;14.658;2023-04-01T02:16:32;5.50;;;4.57;;
22571;SDS011;11452;53.368;14.658;2023-04-01T02:21:38;5.27;;;4.80;;
22571;SDS011;11452;53.368;14.658;2023-04-01T02:26:46;6.13;;;4.90;;
22571;SDS011;11452;53.368;14.658;2023-04-01T02:31:54;6.43;;;5.10;;
22571;SDS011;11452;53.368;14.658;2023-04-01T02:37:01;8.50;;;5.57;;
22571;SDS011;11452;53.368;14.658;2023-04-01T02:42:07;9.10;;;6.57;;
22571;SDS011;11452;53.368;14.658;2023-04-01T02:47:12;9.57;;;6.87;;
22571;SDS011;11452;53.368;14.658;2023-04-01T02:52:18;7.83;;;6.33;;
22571;SDS011;11452;53.368;14.658;2023-04-01T02:57:24;8.97;;;6.60;;
22571;SDS011;11452;53.368;14.658;2023-04-01T03:02:30;7.50;;;5.13;;
22571;SDS011;11452;53.368;14.658;2023-04-01T03:07:36;7.57;;;6.20;;
22571;SDS011;11452;53.368;14.658;2023-04-01T03:12:41;8.97;;;6.97;;
22571;SDS011;11452;53.368;14.658;2023-04-01T03:17:47;9.70;;;7.00;;
22571;SDS011;11452;53.368;14.658;2023-04-01T03:22:53;7.33;;;6.03;;
22571;SDS011;11452;53.368;14.658;2023-04-01T03:27:59;6.53;;;4.70;;
22571;SDS011;11452;53.368;14.658;2023-04-01T03:33:05;7.20;;;5.13;;
22571;SDS011;11452;53.368;14.658;2023-04-01T03:38:10;9.57;;;5.60;;
22571;SDS011;11452;53.368;14.658;2023-04-01T03:43:16;7.77;;;6.73;;
22571;SDS011;11452;53.368;14.658;2023-04-01T03:48:22;9.53;;;7.03;;
22571;SDS011;11452;53.368;14.658;2023-04-01T03:53:29;7.93;;;6.50;;
22571;SDS011;11452;53.368;14.658;2023-04-01T03:58:35;6.13;;;5.03;;
22571;SDS011;11452;53.368;14.658;2023-04-01T04:03:42;4.90;;;4.40;;
22571;SDS011;11452;53.368;14.658;2023-04-01T04:08:49;5.93;;;3.90;;
22571;SDS011;11452;53.368;14.658;2023-04-01T04:13:55;5.67;;;4.33;;
22571;SDS011;11452;53.368;14.658;2023-04-01T04:19:02;5.20;;;3.90;;
22571;SDS011;11452;53.368;14.658;2023-04-01T04:24:08;6.13;;;4.23;;
22571;SDS011;11452;53.368;14.658;2023-04-01T04:29:16;5.10;;;4.30;;
22571;SDS011;11452;53.368;14.658;2023-04-01T04:34:22;5.53;;;4.50;;
22571;SDS011;11452;53.368;14.658;2023-04-01T04:39:27;6.00;;;5.00;;
22571;SDS011;11452;53.368;14.658;2023-04-01T04:44:33;6.07;;;4.73;;
22571;SDS011;11452;53.368;14.658;2023-04-01T04:49:39;6.37;;;4.07;;
22571;SDS011;11452;53.368;14.658;2023-04-01T04:54:45;3.93;;;3.63;;
22571;SDS011;11452;53.368;14.658;2023-04-01T04:59:50;4.60;;;3.93;;
22571;SDS011;11452;53.368;14.658;2023-04-01T05:05:10;6.00;;;4.10;;
22571;SDS011;11452;53.368;14.658;2023-04-01T05:10:15;4.97;;;4.23;;
22571;SDS011;11452;53.368;14.658;2023-04-01T05:15:21;5.73;;;4.10;;
22571;SDS011;11452;53.368;14.658;2023-04-01T05:20:28;4.80;;;4.20;;
22571;SDS011;11452;53.368;14.658;2023-04-01T05:25:37;5.50;;;4.13;;
22571;SDS011;11452;53.368;14.658;2023-04-01T05:30:42;4.93;;;3.93;;
22571;SDS011;11452;53.368;14.658;2023-04-01T05:36:13;5.77;;;4.80;;
22571;SDS011;11452;53.368;14.658;2023-04-01T05:41:20;7.50;;;4.90;;
22571;SDS011;11452;53.368;14.658;2023-04-01T05:46:26;7.97;;;4.47;;
22571;SDS011;11452;53.368;14.658;2023-04-01T05:51:33;7.23;;;4.47;;
22571;SDS011;11452;53.368;14.658;2023-04-01T05:56:39;6.53;;;4.43;;
22571;SDS011;11452;53.368;14.658;2023-04-01T06:01:46;5.37;;;4.30;;
22571;SDS011;11452;53.368;14.658;2023-04-01T06:06:51;5.17;;;4.13;;
22571;SDS011;11452;53.368;14.658;2023-04-01T06:17:20;4.30;;;3.90;;
22571;SDS011;11452;53.368;14.658;2023-04-01T06:50:11;4.30;;;3.90;;
22571;SDS011;11452;53.368;14.658;2023-04-01T06:55:47;3.67;;;3.10;;
22571;SDS011;11452;53.368;14.658;2023-04-01T07:01:00;5.67;;;4.30;;
22571;SDS011;11452;53.368;14.658;2023-04-01T07:06:13;6.40;;;4.47;;
22571;SDS011;11452;53.368;14.658;2023-04-01T07:11:25;5.73;;;4.63;;
22571;SDS011;11452;53.368;14.658;2023-04-01T07:16:51;4.90;;;4.10;;
22571;SDS011;11452;53.368;14.658;2023-04-01T07:27:40;4.37;;;3.80;;
22571;SDS011;11452;53.368;14.658;2023-04-01T07:32:47;5.27;;;3.97;;
22571;SDS011;11452;53.368;14.658;2023-04-01T07:38:15;6.80;;;4.67;;
22571;SDS011;11452;53.368;14.658;2023-04-01T07:48:51;7.60;;;4.23;;
22571;SDS011;11452;53.368;14.658;2023-04-01T07:54:02;4.90;;;4.13;;
22571;SDS011;11452;53.368;14.658;2023-04-01T08:25:56;6.23;;;4.60;;
22571;SDS011;11452;53.368;14.658;2023-04-01T08:31:09;6.40;;;4.73;;
22571;SDS011;11452;53.368;14.658;2023-04-01T08:36:24;5.57;;;3.73;;
22571;SDS011;11452;53.368;14.658;2023-04-01T08:52:27;7.10;;;4.20;;
22571;SDS011;11452;53.368;14.658;2023-04-01T09:03:14;4.97;;;3.37;;
22571;SDS011;11452;53.368;14.658;2023-04-01T09:08:41;4.20;;;2.97;;
22571;SDS011;11452;53.368;14.658;2023-04-01T09:19:10;4.87;;;3.70;;
22571;SDS011;11452;53.368;14.658;2023-04-01T09:24:30;5.50;;;3.47;;
22571;SDS011;11452;53.368;14.658;2023-04-01T09:35:06;2.97;;;2.60;;
22571;SDS011;11452;53.368;14.658;2023-04-01T09:40:34;3.10;;;2.23;;
22571;SDS011;11452;53.368;14.658;2023-04-01T09:45:44;2.93;;;2.43;;
22571;SDS011;11452;53.368;14.658;2023-04-01T09:56:15;3.03;;;2.70;;
22571;SDS011;11452;53.368;14.658;2023-04-01T10:29:01;4.60;;;3.13;;
22571;SDS011;11452;53.368;14.658;2023-04-01T10:39:49;3.50;;;2.83;;
22571;SDS011;11452;53.368;14.658;2023-04-01T11:18:04;4.10;;;3.37;;
22571;SDS011;11452;53.368;14.658;2023-04-01T11:28:44;4.53;;;3.20;;
22571;SDS011;11452;53.368;14.658;2023-04-01T11:39:29;4.87;;;3.83;;
22571;SDS011;11452;53.368;14.658;2023-04-01T11:56:09;5.87;;;4.23;;
22571;SDS011;11452;53.368;14.658;2023-04-01T12:06:40;3.87;;;3.17;;
22571;SDS011;11452;53.368;14.658;2023-04-01T12:11:52;4.23;;;3.27;;
22571;SDS011;11452;53.368;14.658;2023-04-01T12:28:29;4.23;;;2.53;;
22571;SDS011;11452;53.368;14.658;2023-04-01T12:39:15;3.70;;;2.80;;
22571;SDS011;11452;53.368;14.658;2023-04-01T12:44:33;4.00;;;2.50;;
22571;SDS011;11452;53.368;14.658;2023-04-01T12:55:19;4.53;;;2.70;;
22571;SDS011;11452;53.368;14.658;2023-04-01T13:11:31;5.60;;;2.70;;
22571;SDS011;11452;53.368;14.658;2023-04-01T13:16:45;2.37;;;2.10;;
22571;SDS011;11452;53.368;14.658;2023-04-01T13:22:17;3.37;;;2.80;;
22571;SDS011;11452;53.368;14.658;2023-04-01T13:37:52;4.20;;;2.33;;
22571;SDS011;11452;53.368;14.658;2023-04-01T13:42:59;4.57;;;3.00;;
22571;SDS011;11452;53.368;14.658;2023-04-01T14:04:02;4.50;;;2.50;;
22571;SDS011;11452;53.368;14.658;2023-04-01T14:25:53;4.63;;;3.17;;
22571;SDS011;11452;53.368;14.658;2023-04-01T14:52:39;3.83;;;2.87;;
22571;SDS011;11452;53.368;14.658;2023-04-01T14:58:04;3.40;;;2.67;;
22571;SDS011;11452;53.368;14.658;2023-04-01T15:03:09;3.70;;;2.97;;
22571;SDS011;11452;53.368;14.658;2023-04-01T15:08:36;5.37;;;2.57;;
22571;SDS011;11452;53.368;14.658;2023-04-01T15:24:38;5.20;;;3.10;;
22571;SDS011;11452;53.368;14.658;2023-04-01T15:46:30;5.30;;;4.17;;
22571;SDS011;11452;53.368;14.658;2023-04-01T15:52:02;11.50;;;4.93;;
22571;SDS011;11452;53.368;14.658;2023-04-01T16:02:41;5.13;;;3.60;;
22571;SDS011;11452;53.368;14.658;2023-04-01T16:07:58;5.93;;;4.00;;
22571;SDS011;11452;53.368;14.658;2023-04-01T16:18:32;12.80;;;5.50;;
22571;SDS011;11452;53.368;14.658;2023-04-01T16:23:59;9.87;;;4.00;;
22571;SDS011;11452;53.368;14.658;2023-04-01T16:29:10;9.77;;;4.80;;
22571;SDS011;11452;53.368;14.658;2023-04-01T16:34:21;7.93;;;4.10;;
22571;SDS011;11452;53.368;14.658;2023-04-01T16:39:47;7.67;;;4.33;;
22571;SDS011;11452;53.368;14.658;2023-04-01T16:50:15;6.47;;;4.00;;
22571;SDS011;11452;53.368;14.658;2023-04-01T16:55:35;5.63;;;3.73;;
22571;SDS011;11452;53.368;14.658;2023-04-01T17:01:05;5.77;;;3.67;;
22571;SDS011;11452;53.368;14.658;2023-04-01T17:11:49;7.37;;;4.13;;
22571;SDS011;11452;53.368;14.658;2023-04-01T17:22:31;5.77;;;3.13;;
22571;SDS011;11452;53.368;14.658;2023-04-01T17:27:39;5.17;;;3.50;;
22571;SDS011;11452;53.368;14.658;2023-04-01T17:33:01;3.97;;;3.13;;
22571;SDS011;11452;53.368;14.658;2023-04-01T17:43:22;7.60;;;4.30;;
22571;SDS011;11452;53.368;14.658;2023-04-01T17:48:43;7.20;;;3.93;;
22571;SDS011;11452;53.368;14.658;2023-04-01T17:53:59;6.57;;;3.93;;
22571;SDS011;11452;53.368;14.658;2023-04-01T18:04:36;5.60;;;3.27;;
22571;SDS011;11452;53.368;14.658;2023-04-01T18:14:54;5.17;;;3.67;;
22571;SDS011;11452;53.368;14.658;2023-04-01T18:30:28;8.13;;;4.07;;
22571;SDS011;11452;53.368;14.658;2023-04-01T18:35:49;6.67;;;4.20;;
22571;SDS011;11452;53.368;14.658;2023-04-01T18:52:25;4.67;;;2.73;;
22571;SDS011;11452;53.368;14.658;2023-04-01T19:03:02;5.93;;;2.47;;
22571;SDS011;11452;53.368;14.658;2023-04-01T19:08:28;4.13;;;2.37;;
22571;SDS011;11452;53.368;14.658;2023-04-01T19:46:42;3.50;;;2.10;;
22571;SDS011;11452;53.368;14.658;2023-04-01T19:51:59;5.00;;;2.13;;
22571;SDS011;11452;53.368;14.658;2023-04-01T20:07:37;4.23;;;2.60;;
22571;SDS011;11452;53.368;14.658;2023-04-01T20:13:06;4.30;;;2.80;;
22571;SDS011;11452;53.368;14.658;2023-04-01T20:18:16;3.80;;;2.63;;
22571;SDS011;11452;53.368;14.658;2023-04-01T20:23:33;4.63;;;3.10;;
22571;SDS011;11452;53.368;14.658;2023-04-01T20:28:44;4.53;;;2.23;;
22571;SDS011;11452;53.368;14.658;2023-04-01T20:34:05;4.17;;;2.57;;
22571;SDS011;11452;53.368;14.658;2023-04-01T20:55:21;2.93;;;1.70;;
22571;SDS011;11452;53.368;14.658;2023-04-01T21:00:52;3.53;;;1.93;;
22571;SDS011;11452;53.368;14.658;2023-04-01T21:06:15;2.43;;;1.97;;
22571;SDS011;11452;53.368;14.658;2023-04-01T21:22:00;3.40;;;1.93;;
22571;SDS011;11452;53.368;14.658;2023-04-01T21:27:16;3.90;;;1.97;;
22571;SDS011;11452;53.368;14.658;2023-04-01T22:15:52;3.13;;;1.33;;
22571;SDS011;11452;53.368;14.658;2023-04-01T22:31:36;1.87;;;1.60;;
22571;SDS011;11452;53.368;14.658;2023-04-01T22:36:53;3.67;;;1.73;;
22571;SDS011;11452;53.368;14.658;2023-04-01T22:47:32;3.10;;;1.20;;
22571;SDS011;11452;53.368;14.658;2023-04-01T22:52:38;2.57;;;1.50;;
22571;SDS011;11452;53.368;14.658;2023-04-01T23:03:22;3.43;;;1.70;;
22571;SDS011;11452;53.368;14.658;2023-04-01T23:19:19;2.40;;;1.60;;
22571;SDS011;11452;53.368;14.658;2023-04-01T23:24:44;5.23;;;1.70;;
22571;SDS011;11452;53.368;14.658;2023-04-01T23:29:47;4.57;;;1.60;;
22571;SDS011;11452;53.368;14.658;2023-04-01T23:34:59;2.90;;;1.27;;
22571;SDS011;11452;53.368;14.658;2023-04-01T23:40:06;3.57;;;1.43;;
22571;SDS011;11452;53.368;14.658;2023-04-01T23:45:15;2.93;;;1.30;;
22571;SDS011;11452;53.368;14.658;2023-04-01T23:50:24;2.30;;;1.57;;
22571;SDS011;11452;53.368;14.658;2023-04-01T23:55:31;3.13;;;1.17;;
